createdAt,value
2019-05-18T00:00:57.271Z,11.30
2019-05-18T00:02:49.443Z,11.30
2019-05-18T00:04:41.624Z,11.20
2019-05-18T00:06:33.464Z,11.00
2019-05-18T00:08:25.478Z,11.00
2019-05-18T00:10:17.961Z,11.10
2019-05-18T00:12:10.441Z,11.20
2019-05-18T00:14:02.694Z,11.20
2019-05-18T00:15:55.012Z,11.30
2019-05-18T00:17:48.571Z,11.30
2019-05-18T00:19:40.772Z,11.40
2019-05-18T00:21:32.699Z,11.40
2019-05-18T00:23:24.588Z,11.30
2019-05-18T00:25:16.502Z,11.40
2019-05-18T00:27:08.668Z,11.40
2019-05-18T00:29:00.726Z,11.30
2019-05-18T00:30:53.120Z,11.20
2019-05-18T00:32:45.561Z,11.20
2019-05-18T00:34:37.692Z,11.10
2019-05-18T00:36:29.942Z,11.00
2019-05-18T00:38:22.444Z,11.00
2019-05-18T00:40:15.004Z,10.90
2019-05-18T00:42:06.888Z,11.00
2019-05-18T00:44:00.469Z,11.00
2019-05-18T00:45:52.592Z,11.00
2019-05-18T00:47:44.751Z,11.00
2019-05-18T00:49:36.945Z,11.10
2019-05-18T00:51:28.916Z,11.00
2019-05-18T00:53:20.768Z,11.00
2019-05-18T00:55:14.248Z,10.90
2019-05-18T00:57:06.381Z,10.90
2019-05-18T00:58:58.902Z,10.90
2019-05-18T01:00:51.160Z,10.90
2019-05-18T01:02:43.312Z,10.90
2019-05-18T01:04:35.734Z,10.80
2019-05-18T01:06:27.836Z,10.80
2019-05-18T01:08:20.415Z,10.80
2019-05-18T01:10:12.984Z,10.70
2019-05-18T01:12:05.288Z,10.60
2019-05-18T01:13:57.644Z,10.60
2019-05-18T01:15:49.935Z,10.60
2019-05-18T01:17:56.501Z,10.50
2019-05-18T01:19:36.403Z,10.50
2019-05-18T01:21:28.286Z,10.50
2019-05-18T01:23:20.411Z,10.50
2019-05-18T01:25:12.836Z,10.50
2019-05-18T01:27:04.952Z,10.50
2019-05-18T01:29:04.165Z,10.50
2019-05-18T01:30:56.196Z,10.50
2019-05-18T01:32:48.240Z,10.50
2019-05-18T01:34:40.177Z,10.50
2019-05-18T01:36:32.473Z,10.50
2019-05-18T01:38:24.414Z,10.50
2019-05-18T01:40:16.803Z,10.50
2019-05-18T01:42:08.693Z,10.50
2019-05-18T01:44:01.305Z,10.40
2019-05-18T01:45:53.857Z,10.40
2019-05-18T01:47:46.096Z,10.50
2019-05-18T01:49:38.288Z,10.40
2019-05-18T01:51:30.707Z,10.40
2019-05-18T01:53:22.626Z,10.30
2019-05-18T01:55:14.564Z,10.30
2019-05-18T01:57:06.863Z,10.30
2019-05-18T01:58:59.388Z,10.30
2019-05-18T02:00:51.749Z,10.30
2019-05-18T02:02:43.742Z,10.30
2019-05-18T02:04:35.763Z,10.20
2019-05-18T02:06:28.105Z,10.20
2019-05-18T02:08:20.312Z,10.20
2019-05-18T02:10:13.174Z,10.20
2019-05-18T02:12:05.256Z,10.20
2019-05-18T02:13:57.387Z,10.10
2019-05-18T02:15:49.896Z,10.20
2019-05-18T02:17:42.231Z,10.20
2019-05-18T02:19:34.431Z,10.20
2019-05-18T02:21:26.459Z,10.20
2019-05-18T02:23:18.800Z,10.20
2019-05-18T02:25:12.641Z,10.20
2019-05-18T02:27:04.777Z,10.20
2019-05-18T02:28:56.837Z,10.10
2019-05-18T02:30:49.039Z,10.10
2019-05-18T02:32:41.281Z,10.10
2019-05-18T02:34:34.899Z,10.10
2019-05-18T02:36:26.822Z,10.00
2019-05-18T02:38:19.765Z,10.00
2019-05-18T02:40:11.893Z,9.90
2019-05-18T02:42:04.260Z,9.90
2019-05-18T02:43:56.513Z,9.80
2019-05-18T02:45:48.987Z,9.80
2019-05-18T02:47:40.996Z,9.80
2019-05-18T02:49:33.041Z,9.90
2019-05-18T02:51:25.160Z,9.80
2019-05-18T02:53:17.855Z,9.80
2019-05-18T02:55:10.400Z,9.80
2019-05-18T02:57:02.567Z,9.90
2019-05-18T02:58:54.407Z,9.90
2019-05-18T03:00:47.336Z,10.00
2019-05-18T03:02:39.385Z,10.00
2019-05-18T03:04:31.930Z,10.00
2019-05-18T03:06:23.840Z,10.00
2019-05-18T03:08:15.987Z,9.90
2019-05-18T03:10:08.119Z,9.90
2019-05-18T03:12:00.274Z,9.80
2019-05-18T03:13:52.692Z,9.70
2019-05-18T03:15:44.962Z,9.70
2019-05-18T03:17:37.130Z,9.70
2019-05-18T03:19:29.106Z,9.70
2019-05-18T03:21:21.062Z,9.70
2019-05-18T03:23:13.728Z,9.70
2019-05-18T03:25:06.229Z,9.70
2019-05-18T03:26:58.522Z,9.70
2019-05-18T03:28:50.371Z,9.70
2019-05-18T03:30:42.596Z,9.70
2019-05-18T03:32:35.093Z,9.70
2019-05-18T03:34:27.501Z,9.70
2019-05-18T03:36:19.497Z,9.60
2019-05-18T03:38:11.684Z,9.60
2019-05-18T03:40:06.966Z,9.60
2019-05-18T03:41:59.341Z,9.60
2019-05-18T03:43:51.685Z,9.70
2019-05-18T03:45:44.091Z,9.70
2019-05-18T03:47:36.443Z,9.60
2019-05-18T03:49:28.460Z,9.70
2019-05-18T03:51:20.840Z,9.60
2019-05-18T03:53:13.373Z,9.70
2019-05-18T03:55:05.885Z,9.70
2019-05-18T03:56:58.406Z,9.70
2019-05-18T03:58:50.579Z,9.70
2019-05-18T04:00:43.529Z,9.70
2019-05-18T04:02:35.691Z,9.70
2019-05-18T04:04:27.832Z,9.70
2019-05-18T04:06:20.074Z,9.70
2019-05-18T04:08:13.279Z,9.70
2019-05-18T04:10:05.886Z,9.70
2019-05-18T04:11:58.123Z,9.80
2019-05-18T04:13:49.964Z,9.70
2019-05-18T04:15:41.864Z,9.80
2019-05-18T04:17:34.069Z,9.80
2019-05-18T04:19:42.984Z,9.80
2019-05-18T04:21:20.499Z,9.80
2019-05-18T04:23:12.641Z,9.80
2019-05-18T04:25:05.171Z,9.90
2019-05-18T04:26:57.529Z,9.90
2019-05-18T04:28:49.463Z,10.00
2019-05-18T04:30:41.642Z,10.00
2019-05-18T04:32:33.887Z,10.00
2019-05-18T04:34:25.739Z,9.90
2019-05-18T04:36:17.938Z,10.00
2019-05-18T04:38:10.070Z,10.10
2019-05-18T04:40:02.170Z,10.10
2019-05-18T04:41:54.282Z,10.20
2019-05-18T04:43:46.669Z,10.30
2019-05-18T04:45:38.756Z,10.30
2019-05-18T04:47:30.986Z,10.40
2019-05-18T04:49:23.135Z,10.40
2019-05-18T04:51:15.393Z,10.40
2019-05-18T04:53:07.353Z,10.50
2019-05-18T04:54:59.648Z,10.50
2019-05-18T04:56:51.777Z,10.60
2019-05-18T04:58:44.153Z,10.60
2019-05-18T05:00:36.292Z,10.60
2019-05-18T05:02:28.335Z,10.60
2019-05-18T05:04:20.671Z,10.60
2019-05-18T05:06:12.472Z,10.60
2019-05-18T05:08:04.972Z,10.70
2019-05-18T05:09:56.827Z,10.80
2019-05-18T05:11:49.256Z,10.90
2019-05-18T05:13:41.439Z,11.00
2019-05-18T05:15:33.772Z,11.10
2019-05-18T05:17:25.897Z,11.20
2019-05-18T05:19:18.364Z,11.20
2019-05-18T05:21:10.617Z,11.20
2019-05-18T05:23:02.960Z,11.40
2019-05-18T05:24:55.072Z,11.50
2019-05-18T05:26:47.289Z,11.50
2019-05-18T05:28:39.464Z,11.60
2019-05-18T05:30:32.135Z,11.70
2019-05-18T05:32:24.329Z,11.70
2019-05-18T05:34:16.436Z,11.80
2019-05-18T05:36:08.368Z,11.90
2019-05-18T05:38:00.427Z,12.00
2019-05-18T05:39:52.327Z,12.00
2019-05-18T05:41:44.867Z,12.10
2019-05-18T05:43:36.807Z,12.10
2019-05-18T05:45:29.300Z,12.20
2019-05-18T05:47:21.492Z,12.10
2019-05-18T05:49:13.966Z,12.10
2019-05-18T05:51:06.112Z,12.20
2019-05-18T05:52:58.613Z,12.10
2019-05-18T05:54:50.853Z,12.30
2019-05-18T05:56:43.288Z,12.40
2019-05-18T05:58:35.544Z,12.30
2019-05-18T06:00:27.496Z,12.30
2019-05-18T06:02:19.569Z,12.40
2019-05-18T06:04:11.552Z,12.40
2019-05-18T06:06:04.106Z,12.50
2019-05-18T06:07:56.550Z,12.70
2019-05-18T06:09:48.698Z,12.80
2019-05-18T06:11:41.140Z,12.80
2019-05-18T06:13:33.589Z,13.00
2019-05-18T06:15:26.065Z,13.00
2019-05-18T06:17:18.216Z,13.20
2019-05-18T06:19:10.194Z,13.30
2019-05-18T06:21:09.565Z,13.30
2019-05-18T06:23:05.056Z,13.20
2019-05-18T06:24:58.345Z,13.30
2019-05-18T06:26:50.828Z,13.40
2019-05-18T06:28:42.960Z,13.40
2019-05-18T06:30:34.935Z,13.50
2019-05-18T06:32:26.880Z,13.50
2019-05-18T06:34:18.964Z,13.60
2019-05-18T06:36:11.152Z,13.80
2019-05-18T06:38:03.906Z,13.90
2019-05-18T06:39:56.348Z,13.90
2019-05-18T06:41:48.219Z,14.00
2019-05-18T06:43:40.464Z,14.20
2019-05-18T06:45:32.729Z,14.30
2019-05-18T06:47:25.119Z,14.10
2019-05-18T06:49:17.059Z,14.10
2019-05-18T06:51:09.006Z,14.40
2019-05-18T06:53:01.061Z,14.70
2019-05-18T06:54:53.267Z,14.60
2019-05-18T06:56:46.331Z,14.60
2019-05-18T06:58:39.090Z,14.70
2019-05-18T07:00:31.183Z,14.80
2019-05-18T07:02:23.079Z,14.90
2019-05-18T07:04:15.114Z,15.00
2019-05-18T07:06:07.768Z,15.00
2019-05-18T07:07:59.776Z,15.00
2019-05-18T07:09:52.183Z,15.10
2019-05-18T07:11:44.520Z,15.10
2019-05-18T07:13:36.799Z,15.10
2019-05-18T07:15:28.968Z,15.30
2019-05-18T07:17:21.206Z,15.40
2019-05-18T07:19:13.395Z,15.50
2019-05-18T07:21:20.133Z,15.50
2019-05-18T07:23:00.956Z,15.70
2019-05-18T07:24:53.462Z,15.90
2019-05-18T07:26:45.401Z,15.80
2019-05-18T07:28:37.641Z,15.90
2019-05-18T07:30:29.496Z,16.00
2019-05-18T07:32:21.711Z,16.00
2019-05-18T07:34:14.044Z,16.10
2019-05-18T07:36:06.370Z,16.10
2019-05-18T07:37:58.719Z,16.10
2019-05-18T07:39:50.875Z,16.10
2019-05-18T07:41:46.740Z,16.10
2019-05-18T07:43:37.128Z,16.10
2019-05-18T07:45:29.307Z,16.10
2019-05-18T07:47:21.839Z,16.30
2019-05-18T07:49:13.957Z,16.30
2019-05-18T07:51:07.678Z,16.30
2019-05-18T07:53:00.034Z,16.40
2019-05-18T07:54:52.140Z,16.50
2019-05-18T07:56:44.297Z,16.60
2019-05-18T07:58:36.769Z,16.90
2019-05-18T08:00:29.225Z,17.20
2019-05-18T08:02:21.583Z,17.30
2019-05-18T08:04:13.597Z,17.40
2019-05-18T08:06:06.046Z,17.50
2019-05-18T08:07:58.099Z,17.50
2019-05-18T08:09:49.940Z,17.40
2019-05-18T08:11:41.849Z,17.20
2019-05-18T08:13:35.441Z,17.30
2019-05-18T08:15:27.862Z,17.50
2019-05-18T08:17:19.756Z,17.70
2019-05-18T08:19:12.066Z,17.70
2019-05-18T08:21:04.217Z,17.70
2019-05-18T08:22:56.592Z,17.80
2019-05-18T08:24:49.029Z,18.10
2019-05-18T08:26:41.147Z,17.90
2019-05-18T08:28:33.301Z,17.60
2019-05-18T08:30:25.560Z,17.50
2019-05-18T08:32:17.852Z,17.90
2019-05-18T08:34:09.986Z,18.10
2019-05-18T08:36:02.147Z,18.20
2019-05-18T08:37:54.455Z,18.10
2019-05-18T08:39:46.313Z,17.90
2019-05-18T08:41:38.383Z,18.10
2019-05-18T08:43:30.743Z,18.30
2019-05-18T08:45:23.225Z,18.30
2019-05-18T08:47:15.453Z,18.20
2019-05-18T08:49:07.475Z,18.20
2019-05-18T08:50:59.742Z,18.30
2019-05-18T08:52:51.857Z,18.60
2019-05-18T08:54:44.098Z,18.30
2019-05-18T08:56:36.236Z,18.40
2019-05-18T08:58:28.396Z,18.90
2019-05-18T09:00:20.862Z,18.80
2019-05-18T09:02:13.325Z,18.60
2019-05-18T09:04:05.714Z,18.40
2019-05-18T09:06:00.345Z,18.60
2019-05-18T09:07:52.221Z,18.70
2019-05-18T09:09:44.515Z,18.90
2019-05-18T09:11:37.086Z,18.70
2019-05-18T09:13:29.327Z,18.60
2019-05-18T09:15:21.808Z,18.80
2019-05-18T09:17:14.114Z,19.10
2019-05-18T09:19:06.449Z,19.30
2019-05-18T09:20:58.620Z,19.40
2019-05-18T09:22:51.053Z,19.40
2019-05-18T09:24:43.192Z,19.10
2019-05-18T09:26:35.694Z,19.10
2019-05-18T09:28:28.077Z,19.20
2019-05-18T09:30:19.989Z,19.30
2019-05-18T09:32:12.104Z,19.40
2019-05-18T09:34:04.582Z,19.30
2019-05-18T09:35:56.884Z,19.20
2019-05-18T09:37:49.404Z,19.10
2019-05-18T09:39:41.609Z,18.90
2019-05-18T09:41:34.247Z,18.90
2019-05-18T09:43:27.413Z,19.10
2019-05-18T09:45:20.060Z,19.20
2019-05-18T09:47:12.363Z,19.20
2019-05-18T09:49:04.630Z,19.80
2019-05-18T09:50:56.890Z,19.60
2019-05-18T09:52:49.116Z,19.30
2019-05-18T09:54:41.528Z,19.30
2019-05-18T09:56:34.059Z,19.20
2019-05-18T09:58:26.176Z,19.20
2019-05-18T10:00:18.963Z,19.10
2019-05-18T10:02:11.368Z,19.10
2019-05-18T10:04:04.828Z,19.20
2019-05-18T10:05:56.880Z,19.50
2019-05-18T10:07:48.725Z,20.10
2019-05-18T10:09:41.290Z,20.20
2019-05-18T10:11:38.514Z,20.30
2019-05-18T10:13:27.346Z,20.70
2019-05-18T10:15:19.945Z,20.70
2019-05-18T10:17:13.505Z,20.90
2019-05-18T10:19:05.981Z,21.00
2019-05-18T10:20:58.209Z,21.00
2019-05-18T10:22:58.999Z,20.60
2019-05-18T10:24:44.688Z,20.50
2019-05-18T10:26:36.697Z,20.50
2019-05-18T10:28:29.207Z,20.60
2019-05-18T10:30:21.272Z,20.80
2019-05-18T10:32:13.541Z,20.90
2019-05-18T10:34:06.077Z,20.60
2019-05-18T10:35:58.387Z,20.10
2019-05-18T10:37:50.809Z,20.20
2019-05-18T10:39:42.734Z,20.40
2019-05-18T10:41:35.068Z,20.50
2019-05-18T10:43:27.388Z,20.20
2019-05-18T10:45:19.706Z,20.20
2019-05-18T10:47:11.965Z,20.40
2019-05-18T10:49:04.004Z,20.70
2019-05-18T10:50:57.248Z,20.70
2019-05-18T10:52:49.683Z,20.80
2019-05-18T10:54:41.612Z,20.80
2019-05-18T10:56:33.584Z,20.70
2019-05-18T10:58:26.055Z,20.50
2019-05-18T11:00:18.421Z,20.90
2019-05-18T11:02:11.366Z,20.80
2019-05-18T11:04:03.612Z,21.00
2019-05-18T11:05:56.157Z,21.30
2019-05-18T11:07:48.337Z,21.50
2019-05-18T11:09:40.843Z,20.90
2019-05-18T11:11:32.858Z,20.70
2019-05-18T11:13:25.069Z,20.90
2019-05-18T11:15:17.660Z,20.50
2019-05-18T11:17:10.015Z,20.60
2019-05-18T11:19:02.024Z,20.90
2019-05-18T11:20:54.653Z,21.50
2019-05-18T11:22:46.883Z,21.50
2019-05-18T11:24:38.994Z,21.40
2019-05-18T11:26:31.402Z,21.00
2019-05-18T11:28:23.725Z,20.90
2019-05-18T11:30:16.447Z,20.80
2019-05-18T11:32:08.477Z,20.80
2019-05-18T11:34:00.718Z,20.80
2019-05-18T11:35:52.900Z,20.80
2019-05-18T11:37:45.433Z,20.50
2019-05-18T11:39:37.946Z,20.30
2019-05-18T11:41:30.052Z,20.40
2019-05-18T11:43:22.207Z,20.50
2019-05-18T11:45:15.443Z,20.30
2019-05-18T11:47:07.995Z,20.10
2019-05-18T11:48:59.954Z,20.10
2019-05-18T11:50:52.389Z,19.90
2019-05-18T11:52:44.618Z,20.00
2019-05-18T11:54:36.715Z,20.00
2019-05-18T11:56:29.403Z,20.10
2019-05-18T11:58:21.760Z,20.40
2019-05-18T12:00:16.004Z,20.90
2019-05-18T12:02:08.301Z,21.60
2019-05-18T12:04:00.554Z,22.90
2019-05-18T12:05:53.890Z,23.10
2019-05-18T12:07:46.163Z,22.80
2019-05-18T12:09:38.047Z,23.20
2019-05-18T12:11:31.355Z,24.10
2019-05-18T12:13:24.164Z,24.30
2019-05-18T12:15:16.826Z,24.70
2019-05-18T12:17:09.280Z,25.00
2019-05-18T12:19:01.451Z,25.10
2019-05-18T12:20:53.720Z,25.30
2019-05-18T12:22:46.074Z,25.80
2019-05-18T12:24:38.327Z,26.70
2019-05-18T12:26:30.486Z,25.30
2019-05-18T12:28:22.734Z,24.70
2019-05-18T12:30:15.163Z,24.70
2019-05-18T12:32:07.353Z,24.70
2019-05-18T12:33:59.945Z,24.70
2019-05-18T12:35:52.469Z,25.40
2019-05-18T12:37:44.721Z,25.60
2019-05-18T12:39:36.913Z,25.70
2019-05-18T12:41:29.253Z,25.50
2019-05-18T12:43:21.655Z,25.40
2019-05-18T12:45:14.264Z,24.90
2019-05-18T12:47:06.862Z,24.20
2019-05-18T12:48:59.280Z,24.00
2019-05-18T12:50:51.530Z,24.20
2019-05-18T12:52:44.634Z,24.00
2019-05-18T12:54:46.023Z,24.00
2019-05-18T12:56:30.997Z,23.50
2019-05-18T12:58:23.170Z,23.60
2019-05-18T13:00:17.090Z,23.00
2019-05-18T13:02:09.275Z,23.00
2019-05-18T13:04:01.749Z,23.10
2019-05-18T13:05:53.890Z,22.60
2019-05-18T13:07:46.197Z,22.50
2019-05-18T13:09:38.649Z,22.20
2019-05-18T13:11:30.608Z,22.00
2019-05-18T13:13:22.813Z,22.20
2019-05-18T13:15:15.032Z,21.90
2019-05-18T13:17:07.438Z,21.80
2019-05-18T13:18:59.454Z,21.60
2019-05-18T13:20:51.548Z,22.10
2019-05-18T13:22:43.541Z,22.10
2019-05-18T13:24:44.990Z,22.00
2019-05-18T13:26:29.543Z,22.10
2019-05-18T13:28:23.772Z,22.10
2019-05-18T13:30:19.767Z,22.50
2019-05-18T13:32:10.786Z,22.50
2019-05-18T13:34:02.797Z,22.10
2019-05-18T13:35:54.928Z,22.30
2019-05-18T13:37:46.987Z,22.00
2019-05-18T13:39:39.395Z,21.90
2019-05-18T13:41:31.771Z,21.70
2019-05-18T13:43:24.195Z,21.70
2019-05-18T13:45:16.584Z,22.40
2019-05-18T13:47:08.876Z,22.50
2019-05-18T13:49:01.214Z,22.20
2019-05-18T13:50:53.167Z,22.00
2019-05-18T13:52:45.684Z,21.90
2019-05-18T13:54:37.676Z,21.90
2019-05-18T13:56:29.719Z,21.90
2019-05-18T13:58:21.949Z,21.70
2019-05-18T14:00:14.423Z,21.30
2019-05-18T14:02:06.767Z,21.30
2019-05-18T14:03:58.947Z,21.30
2019-05-18T14:05:51.144Z,21.70
2019-05-18T14:07:43.540Z,22.00
2019-05-18T14:09:37.188Z,21.90
2019-05-18T14:11:29.616Z,21.80
2019-05-18T14:13:21.559Z,21.90
2019-05-18T14:15:15.284Z,21.80
2019-05-18T14:17:07.599Z,21.60
2019-05-18T14:18:59.999Z,21.80
2019-05-18T14:20:51.880Z,21.60
2019-05-18T14:22:44.313Z,21.50
2019-05-18T14:24:36.549Z,21.80
2019-05-18T14:26:29.108Z,22.50
2019-05-18T14:28:21.605Z,22.50
2019-05-18T14:30:14.362Z,22.30
2019-05-18T14:32:06.306Z,22.20
2019-05-18T14:33:58.446Z,22.50
2019-05-18T14:35:51.377Z,22.70
2019-05-18T14:37:43.612Z,22.40
2019-05-18T14:39:35.736Z,22.60
2019-05-18T14:41:29.185Z,22.90
2019-05-18T14:43:21.285Z,22.70
2019-05-18T14:45:14.133Z,22.30
2019-05-18T14:47:06.357Z,22.70
2019-05-18T14:48:58.289Z,22.70
2019-05-18T14:50:50.585Z,22.90
2019-05-18T14:52:42.692Z,22.30
2019-05-18T14:54:34.892Z,22.10
2019-05-18T14:56:26.912Z,22.00
2019-05-18T14:58:19.014Z,21.80
2019-05-18T15:00:12.730Z,21.70
2019-05-18T15:02:04.882Z,21.90
2019-05-18T15:03:57.415Z,22.00
2019-05-18T15:05:49.777Z,22.60
2019-05-18T15:07:42.047Z,22.10
2019-05-18T15:09:34.323Z,21.90
2019-05-18T15:11:26.169Z,21.90
2019-05-18T15:13:18.101Z,22.10
2019-05-18T15:15:10.998Z,22.20
2019-05-18T15:17:03.544Z,22.30
2019-05-18T15:18:55.904Z,22.30
2019-05-18T15:20:48.072Z,22.10
2019-05-18T15:22:39.939Z,22.40
2019-05-18T15:24:32.457Z,21.90
2019-05-18T15:26:24.851Z,21.50
2019-05-18T15:28:17.091Z,21.20
2019-05-18T15:30:09.539Z,21.30
2019-05-18T15:32:01.788Z,21.70
2019-05-18T15:33:54.757Z,22.10
2019-05-18T15:35:47.376Z,22.50
2019-05-18T15:37:39.598Z,22.90
2019-05-18T15:39:31.863Z,22.50
2019-05-18T15:41:23.923Z,22.70
2019-05-18T15:43:16.175Z,22.50
2019-05-18T15:45:08.448Z,22.30
2019-05-18T15:47:00.845Z,22.30
2019-05-18T15:48:53.195Z,22.40
2019-05-18T15:50:45.644Z,22.70
2019-05-18T15:52:37.887Z,23.00
2019-05-18T15:54:30.561Z,22.90
2019-05-18T15:56:22.755Z,22.30
2019-05-18T15:58:15.113Z,22.00
2019-05-18T16:00:07.945Z,21.60
2019-05-18T16:02:00.263Z,21.30
2019-05-18T16:03:52.536Z,21.10
2019-05-18T16:05:44.750Z,21.00
2019-05-18T16:07:36.881Z,21.00
2019-05-18T16:09:28.989Z,21.00
2019-05-18T16:11:20.879Z,20.70
2019-05-18T16:13:13.133Z,20.60
2019-05-18T16:15:06.646Z,20.70
2019-05-18T16:16:59.072Z,20.90
2019-05-18T16:18:51.399Z,20.70
2019-05-18T16:20:43.729Z,20.60
2019-05-18T16:22:35.956Z,20.60
2019-05-18T16:24:28.135Z,20.50
2019-05-18T16:26:21.845Z,20.40
2019-05-18T16:28:14.306Z,20.40
2019-05-18T16:30:07.611Z,20.30
2019-05-18T16:32:00.181Z,20.30
2019-05-18T16:33:52.691Z,20.20
2019-05-18T16:35:44.528Z,20.20
2019-05-18T16:37:36.760Z,20.30
2019-05-18T16:39:29.210Z,20.30
2019-05-18T16:41:21.878Z,20.30
2019-05-18T16:43:14.056Z,20.40
2019-05-18T16:45:07.455Z,20.30
2019-05-18T16:46:59.984Z,20.20
2019-05-18T16:48:52.346Z,20.10
2019-05-18T16:50:44.388Z,20.20
2019-05-18T16:52:36.520Z,20.20
2019-05-18T16:54:28.920Z,20.20
2019-05-18T16:56:20.798Z,20.20
2019-05-18T16:58:12.674Z,20.20
2019-05-18T17:00:09.610Z,20.10
2019-05-18T17:02:01.723Z,20.10
2019-05-18T17:03:54.033Z,20.20
2019-05-18T17:05:45.999Z,20.10
2019-05-18T17:07:38.482Z,20.00
2019-05-18T17:09:30.722Z,19.90
2019-05-18T17:11:23.162Z,20.00
2019-05-18T17:13:15.677Z,20.00
2019-05-18T17:15:08.808Z,20.00
2019-05-18T17:17:01.144Z,19.90
2019-05-18T17:18:53.160Z,19.90
2019-05-18T17:20:45.083Z,19.80
2019-05-18T17:22:37.226Z,19.70
2019-05-18T17:24:29.136Z,19.70
2019-05-18T17:26:21.007Z,19.70
2019-05-18T17:28:13.585Z,19.70
2019-05-18T17:30:06.457Z,19.70
2019-05-18T17:31:58.890Z,19.60
2019-05-18T17:33:51.092Z,19.70
2019-05-18T17:35:59.105Z,19.60
2019-05-18T17:37:37.456Z,19.60
2019-05-18T17:39:29.729Z,19.60
2019-05-18T17:41:21.924Z,19.50
2019-05-18T17:43:14.224Z,19.50
2019-05-18T17:45:07.721Z,19.50
2019-05-18T17:46:59.935Z,19.40
2019-05-18T17:48:52.202Z,19.40
2019-05-18T17:50:44.298Z,19.40
2019-05-18T17:52:36.544Z,19.40
2019-05-18T17:54:28.871Z,19.40
2019-05-18T17:56:21.245Z,19.30
2019-05-18T17:58:13.740Z,19.20
2019-05-18T18:00:07.187Z,19.30
2019-05-18T18:01:59.580Z,19.20
2019-05-18T18:03:51.553Z,19.10
2019-05-18T18:05:43.562Z,19.20
2019-05-18T18:07:35.849Z,19.10
2019-05-18T18:09:28.268Z,19.00
2019-05-18T18:11:20.681Z,19.00
2019-05-18T18:13:12.755Z,18.90
2019-05-18T18:15:06.157Z,18.90
2019-05-18T18:16:58.626Z,18.90
2019-05-18T18:18:50.502Z,18.90
2019-05-18T18:20:43.032Z,18.80
2019-05-18T18:22:35.236Z,18.70
2019-05-18T18:24:27.265Z,18.70
2019-05-18T18:26:19.697Z,18.70
2019-05-18T18:28:12.348Z,18.60
2019-05-18T18:30:07.883Z,18.50
2019-05-18T18:32:00.095Z,18.60
2019-05-18T18:33:52.648Z,18.50
2019-05-18T18:35:44.520Z,18.40
2019-05-18T18:37:36.718Z,18.30
2019-05-18T18:39:29.037Z,18.30
2019-05-18T18:41:21.682Z,18.30
2019-05-18T18:43:14.053Z,18.20
2019-05-18T18:45:06.546Z,18.10
2019-05-18T18:46:58.730Z,18.10
2019-05-18T18:48:51.111Z,18.00
2019-05-18T18:50:43.291Z,17.90
2019-05-18T18:52:35.592Z,17.80
2019-05-18T18:54:27.932Z,17.70
2019-05-18T18:56:19.945Z,17.70
2019-05-18T18:58:12.300Z,17.70
2019-05-18T19:00:05.360Z,17.70
2019-05-18T19:01:57.947Z,17.70
2019-05-18T19:03:50.205Z,17.70
2019-05-18T19:05:42.610Z,17.50
2019-05-18T19:07:34.937Z,17.40
2019-05-18T19:09:26.858Z,17.30
2019-05-18T19:11:19.142Z,17.30
2019-05-18T19:13:11.163Z,17.20
2019-05-18T19:15:04.975Z,17.20
2019-05-18T19:16:57.362Z,17.10
2019-05-18T19:18:49.297Z,17.00
2019-05-18T19:20:41.183Z,16.90
2019-05-18T19:22:33.685Z,16.80
2019-05-18T19:24:25.844Z,16.90
2019-05-18T19:26:18.414Z,16.90
2019-05-18T19:28:10.880Z,16.80
2019-05-18T19:30:03.666Z,16.70
2019-05-18T19:31:56.302Z,16.70
2019-05-18T19:33:48.209Z,16.70
2019-05-18T19:35:40.372Z,16.70
2019-05-18T19:37:32.554Z,16.60
2019-05-18T19:39:24.917Z,16.60
2019-05-18T19:41:17.471Z,16.60
2019-05-18T19:43:09.679Z,16.60
2019-05-18T19:45:01.746Z,16.60
2019-05-18T19:46:54.170Z,16.60
2019-05-18T19:48:46.332Z,16.70
2019-05-18T19:50:38.516Z,16.70
2019-05-18T19:52:31.187Z,16.70
2019-05-18T19:54:23.200Z,16.70
2019-05-18T19:56:15.757Z,16.60
2019-05-18T19:58:09.183Z,16.50
2019-05-18T20:00:01.977Z,16.50
2019-05-18T20:01:55.833Z,16.50
2019-05-18T20:03:47.964Z,16.50
2019-05-18T20:05:40.360Z,16.50
2019-05-18T20:07:32.749Z,16.60
2019-05-18T20:09:25.072Z,16.60
2019-05-18T20:11:17.395Z,16.50
2019-05-18T20:13:09.861Z,16.40
2019-05-18T20:15:02.148Z,16.30
2019-05-18T20:16:54.405Z,16.20
2019-05-18T20:18:46.850Z,16.10
2019-05-18T20:20:39.183Z,15.90
2019-05-18T20:22:31.457Z,15.80
2019-05-18T20:24:23.637Z,15.60
2019-05-18T20:26:16.106Z,15.60
2019-05-18T20:28:08.192Z,15.50
2019-05-18T20:30:00.245Z,15.50
2019-05-18T20:31:52.713Z,15.40
2019-05-18T20:33:44.939Z,15.30
2019-05-18T20:35:37.263Z,15.40
2019-05-18T20:37:29.185Z,15.30
2019-05-18T20:39:21.303Z,15.20
2019-05-18T20:41:13.295Z,15.10
2019-05-18T20:43:05.612Z,15.10
2019-05-18T20:44:57.562Z,15.00
2019-05-18T20:46:49.412Z,14.90
2019-05-18T20:48:41.258Z,14.90
2019-05-18T20:50:33.974Z,14.80
2019-05-18T20:52:26.115Z,14.80
2019-05-18T20:54:18.495Z,14.80
2019-05-18T20:56:12.112Z,14.70
2019-05-18T20:58:05.931Z,14.70
2019-05-18T20:59:57.883Z,14.60
2019-05-18T21:01:50.444Z,14.60
2019-05-18T21:03:42.638Z,14.60
2019-05-18T21:05:34.790Z,14.50
2019-05-18T21:07:27.289Z,14.50
2019-05-18T21:09:19.678Z,14.50
2019-05-18T21:11:11.896Z,14.50
2019-05-18T21:13:04.047Z,14.40
2019-05-18T21:14:55.952Z,14.40
2019-05-18T21:16:47.827Z,14.40
2019-05-18T21:18:40.150Z,14.40
2019-05-18T21:20:32.360Z,14.40
2019-05-18T21:22:24.493Z,14.30
2019-05-18T21:24:16.600Z,14.30
2019-05-18T21:26:08.880Z,14.20
2019-05-18T21:28:01.220Z,14.20
2019-05-18T21:29:53.831Z,14.20
2019-05-18T21:31:45.830Z,14.20
2019-05-18T21:33:38.043Z,14.20
2019-05-18T21:35:31.312Z,14.20
2019-05-18T21:37:23.519Z,14.10
2019-05-18T21:39:16.901Z,14.10
2019-05-18T21:41:09.116Z,14.10
2019-05-18T21:43:01.036Z,14.10
2019-05-18T21:44:53.334Z,14.10
2019-05-18T21:46:45.157Z,14.20
2019-05-18T21:48:37.658Z,14.20
2019-05-18T21:50:29.677Z,14.10
2019-05-18T21:52:21.567Z,14.10
2019-05-18T21:54:14.064Z,14.10
2019-05-18T21:56:06.207Z,14.10
2019-05-18T21:57:58.375Z,14.00
2019-05-18T21:59:50.807Z,14.00
2019-05-18T22:01:42.809Z,13.90
2019-05-18T22:03:35.258Z,13.90
2019-05-18T22:05:27.077Z,13.80
2019-05-18T22:07:19.125Z,13.80
2019-05-18T22:09:11.110Z,13.80
2019-05-18T22:11:03.329Z,13.80
2019-05-18T22:12:55.322Z,13.80
2019-05-18T22:14:47.518Z,13.80
2019-05-18T22:16:39.464Z,13.70
2019-05-18T22:18:31.599Z,13.70
2019-05-18T22:20:23.973Z,13.60
2019-05-18T22:22:16.406Z,13.50
2019-05-18T22:24:08.451Z,13.50
2019-05-18T22:26:00.583Z,13.50
2019-05-18T22:27:52.844Z,13.50
2019-05-18T22:29:45.077Z,13.50
2019-05-18T22:31:37.362Z,13.50
2019-05-18T22:33:29.787Z,13.60
2019-05-18T22:35:22.244Z,13.50
2019-05-18T22:37:14.128Z,13.50
2019-05-18T22:39:06.712Z,13.40
2019-05-18T22:40:59.021Z,13.40
2019-05-18T22:42:51.202Z,13.40
2019-05-18T22:44:43.672Z,13.40
2019-05-18T22:46:36.095Z,13.30
2019-05-18T22:48:40.742Z,13.30
2019-05-18T22:50:22.732Z,13.20
2019-05-18T22:52:14.934Z,13.10
2019-05-18T22:54:07.068Z,13.00
2019-05-18T22:55:59.431Z,13.00
2019-05-18T22:57:51.695Z,12.90
2019-05-18T22:59:44.030Z,12.80
2019-05-18T23:01:37.500Z,12.80
2019-05-18T23:03:29.701Z,12.70
2019-05-18T23:05:21.830Z,12.60
2019-05-18T23:07:13.835Z,12.60
2019-05-18T23:09:06.618Z,12.60
2019-05-18T23:10:59.140Z,12.70
2019-05-18T23:12:51.109Z,12.70
2019-05-18T23:14:43.005Z,12.70
2019-05-18T23:16:35.423Z,12.70
2019-05-18T23:18:27.345Z,12.60
2019-05-18T23:20:19.370Z,12.60
2019-05-18T23:22:11.583Z,12.60
2019-05-18T23:24:03.587Z,12.60
2019-05-18T23:25:55.645Z,12.70
2019-05-18T23:27:47.917Z,12.80
2019-05-18T23:29:40.305Z,12.80
2019-05-18T23:31:32.383Z,12.60
2019-05-18T23:33:24.701Z,12.50
2019-05-18T23:35:17.244Z,12.40
2019-05-18T23:37:09.405Z,12.30
2019-05-18T23:39:01.876Z,12.30
2019-05-18T23:40:55.400Z,12.30
2019-05-18T23:42:47.756Z,12.30
2019-05-18T23:44:39.612Z,12.20
2019-05-18T23:46:31.848Z,12.20
2019-05-18T23:48:24.312Z,12.20
2019-05-18T23:50:16.613Z,12.10
2019-05-18T23:52:08.775Z,12.10
2019-05-18T23:54:01.318Z,12.20
2019-05-18T23:55:53.449Z,12.20
2019-05-18T23:57:45.668Z,12.30
2019-05-18T23:59:38.100Z,12.30
